CST,Max TemperatureF,Mean TemperatureF,Min TemperatureF,Max Dew PointF,MeanDew PointF,Min DewpointF,Max Humidity, Mean Humidity, Min Humidity, Max Sea Level PressureIn, Mean Sea Level PressureIn, Min Sea Level PressureIn, Max VisibilityMiles, Mean VisibilityMiles, Min VisibilityMiles, Max Wind SpeedMPH, Mean Wind SpeedMPH, Max Gust SpeedMPH,PrecipitationIn, CloudCover, Events, WindDirDegrees
2012-11-1,68,52,37,39,31,19,66,47,30,29.98,29.93,29.86,10,10,4,12,4,,0.00,2,,282
2012-11-2,53,46,39,34,30,27,66,53,35,30.11,30.05,29.97,10,8,2,12,6,17,0.00,0,,72
2012-11-3,55,47,39,36,33,28,75,57,38,30.21,30.13,30.05,10,10,10,15,8,21,0.00,4,Rain,66
2012-11-4,51,42,33,37,33,27,81,69,54,30.26,30.21,30.16,10,8,1,6,1,,0.00,5,Rain,164
2012-11-5,46,44,42,37,37,36,81,73,66,30.15,30.12,30.09,10,7,2,15,8,22,0.20,8,Rain,97
2012-11-6,50,47,44,43,39,36,82,74,66,30.10,29.96,29.88,10,7,1,13,4,20,0.16,8,Rain,258
2012-11-7,50,44,39,37,36,32,81,68,54,30.17,30.09,29.93,10,10,7,12,7,20,0.00,7,Rain,345
2012-11-8,60,48,35,39,36,30,81,62,42,30.18,30.10,30.00,10,8,2,12,5,17,0.00,0,,158
2012-11-9,69,58,46,55,46,37,71,61,46,30.01,29.93,29.85,10,9,2,13,5,18,0.00,1,,157
2012-11-10,77,70,64,55,51,37,68,51,25,29.88,29.83,29.77,10,10,10,23,13,38,0.01,0,Rain,182
2012-11-11,71,52,33,55,44,23,81,68,56,30.12,29.86,29.71,10,9,3,23,14,36,1.16,5,Rain-Snow,245
2012-11-12,44,36,28,23,21,18,69,57,37,30.41,30.26,30.12,10,10,10,22,9,29,0.00,1,,265
2012-11-13,51,38,24,27,22,18,74,51,28,30.50,30.44,30.40,10,9,3,7,1,,0.00,0,,168
2012-11-14,57,47,37,30,27,25,65,52,29,30.45,30.39,30.33,10,10,3,9,2,,0.03,0,,171
2012-11-15,55,44,33,30,28,25,75,57,36,30.37,30.33,30.29,10,10,2,7,1,,0.00,1,,197
2012-11-16,57,45,33,37,33,27,81,66,36,30.45,30.41,30.37,10,7,2,7,2,,0.00,0,,47
2012-11-17,57,45,33,34,30,27,81,58,31,30.48,30.42,30.37,10,9,4,10,5,,0.00,0,,147
2012-11-18,60,48,37,34,29,21,75,49,22,30.37,30.31,30.24,10,10,7,10,6,,0.00,0,,154
2012-11-19,53,50,46,45,39,30,87,69,47,30.24,30.15,30.07,10,10,5,14,6,18,0.04,5,Rain,173
2012-11-20,48,44,39,43,40,36,87,81,76,30.21,30.14,30.05,10,2,0,7,4,,0.00,7,,324
2012-11-21,60,48,37,52,40,34,87,74,54,30.24,30.16,30.05,10,5,0,9,4,,0.01,4,,188
2012-11-22,66,54,42,52,41,32,70,58,42,30.12,29.94,29.80,10,10,10,24,13,33,0.00,2,Rain,218
2012-11-23,42,34,24,32,18,12,75,54,44,30.35,30.26,30.12,10,10,10,24,14,37,0.00,1,,303
2012-11-24,35,27,19,19,16,12,74,62,52,30.34,30.19,29.92,10,10,10,9,6,,0.00,0,,219
2012-11-25,46,39,32,28,24,19,70,56,43,30.10,29.96,29.87,10,10,10,12,6,,0.00,0,,300
2012-11-26,35,28,19,25,18,10,70,58,47,30.43,30.28,30.11,10,10,10,14,6,20,0.00,3,,358
2012-11-27,35,24,14,18,12,7,73,55,35,30.45,30.36,30.27,10,10,7,8,3,,0.00,1,,246
2012-11-28,46,35,24,27,22,16,74,58,40,30.42,30.33,30.24,10,9,2,9,4,,0.00,0,,202
2012-11-29,55,45,35,36,31,27,71,60,44,30.23,30.10,30.01,10,9,3,12,5,17,0.00,0,,179
2012-11-30,59,48,37,39,34,30,81,62,48,30.08,30.04,30.00,10,10,7,10,6,,0.00,0,,208